sensor_id;sensor_type;location;lat;lon;timestamp;P1;durP1;ratioP1;P2;durP2;ratioP2
16177;SDS011;8195;51.220;9.746;2023-05-19T00:02:33;5.30;;;3.67;;
16177;SDS011;8195;51.220;9.746;2023-05-19T00:13:08;5.07;;;3.17;;
16177;SDS011;8195;51.220;9.746;2023-05-19T00:23:58;4.67;;;3.60;;
16177;SDS011;8195;51.220;9.746;2023-05-19T00:34:25;4.87;;;3.47;;
16177;SDS011;8195;51.220;9.746;2023-05-19T00:44:56;7.80;;;3.60;;
16177;SDS011;8195;51.220;9.746;2023-05-19T01:06:34;4.63;;;3.60;;
16177;SDS011;8195;51.220;9.746;2023-05-19T01:17:00;6.40;;;3.77;;
16177;SDS011;8195;51.220;9.746;2023-05-19T01:38:01;5.57;;;3.60;;
16177;SDS011;8195;51.220;9.746;2023-05-19T01:48:32;5.67;;;3.80;;
16177;SDS011;8195;51.220;9.746;2023-05-19T01:58:58;11.03;;;4.40;;
16177;SDS011;8195;51.220;9.746;2023-05-19T02:20:22;7.33;;;4.10;;
16177;SDS011;8195;51.220;9.746;2023-05-19T02:30:52;4.10;;;3.70;;
16177;SDS011;8195;51.220;9.746;2023-05-19T02:41:13;5.50;;;4.27;;
16177;SDS011;8195;51.220;9.746;2023-05-19T02:51:37;7.47;;;4.00;;
16177;SDS011;8195;51.220;9.746;2023-05-19T03:02:15;5.20;;;3.80;;
16177;SDS011;8195;51.220;9.746;2023-05-19T03:12:39;4.43;;;3.43;;
16177;SDS011;8195;51.220;9.746;2023-05-19T03:23:00;5.47;;;3.80;;
16177;SDS011;8195;51.220;9.746;2023-05-19T03:33:21;6.63;;;4.30;;
16177;SDS011;8195;51.220;9.746;2023-05-19T03:43:42;6.83;;;4.60;;
16177;SDS011;8195;51.220;9.746;2023-05-19T03:54:03;4.80;;;3.80;;
16177;SDS011;8195;51.220;9.746;2023-05-19T04:04:24;6.10;;;3.90;;
16177;SDS011;8195;51.220;9.746;2023-05-19T04:25:53;7.17;;;3.70;;
16177;SDS011;8195;51.220;9.746;2023-05-19T04:36:17;6.13;;;3.87;;
16177;SDS011;8195;51.220;9.746;2023-05-19T04:46:38;3.53;;;3.23;;
16177;SDS011;8195;51.220;9.746;2023-05-19T04:56:59;5.83;;;4.00;;
16177;SDS011;8195;51.220;9.746;2023-05-19T05:07:21;6.60;;;4.10;;
16177;SDS011;8195;51.220;9.746;2023-05-19T05:17:42;6.87;;;3.80;;
16177;SDS011;8195;51.220;9.746;2023-05-19T05:28:03;5.70;;;3.93;;
16177;SDS011;8195;51.220;9.746;2023-05-19T05:38:24;6.57;;;3.80;;
16177;SDS011;8195;51.220;9.746;2023-05-19T05:48:45;4.90;;;4.10;;
16177;SDS011;8195;51.220;9.746;2023-05-19T05:59:06;6.90;;;4.33;;
16177;SDS011;8195;51.220;9.746;2023-05-19T06:09:27;5.40;;;3.50;;
16177;SDS011;8195;51.220;9.746;2023-05-19T06:19:48;3.50;;;3.20;;
16177;SDS011;8195;51.220;9.746;2023-05-19T06:30:09;3.73;;;3.03;;
16177;SDS011;8195;51.220;9.746;2023-05-19T06:40:33;6.53;;;3.40;;
16177;SDS011;8195;51.220;9.746;2023-05-19T07:13:24;3.73;;;3.13;;
16177;SDS011;8195;51.220;9.746;2023-05-19T07:24:05;5.27;;;3.40;;
16177;SDS011;8195;51.220;9.746;2023-05-19T07:34:55;4.57;;;3.20;;
16177;SDS011;8195;51.220;9.746;2023-05-19T07:45:18;5.17;;;2.83;;
16177;SDS011;8195;51.220;9.746;2023-05-19T07:55:39;3.43;;;3.13;;
16177;SDS011;8195;51.220;9.746;2023-05-19T08:06:01;4.50;;;3.47;;
16177;SDS011;8195;51.220;9.746;2023-05-19T08:16:26;3.47;;;3.17;;
16177;SDS011;8195;51.220;9.746;2023-05-19T08:26:47;4.30;;;3.90;;
16177;SDS011;8195;51.220;9.746;2023-05-19T08:37:12;5.47;;;4.30;;
16177;SDS011;8195;51.220;9.746;2023-05-19T08:58:44;5.97;;;4.00;;
16177;SDS011;8195;51.220;9.746;2023-05-19T09:20:23;4.07;;;3.53;;
16177;SDS011;8195;51.220;9.746;2023-05-19T09:31:06;4.10;;;3.40;;
16177;SDS011;8195;51.220;9.746;2023-05-19T09:41:54;3.53;;;3.23;;
16177;SDS011;8195;51.220;9.746;2023-05-19T09:52:23;3.57;;;3.10;;
16177;SDS011;8195;51.220;9.746;2023-05-19T10:02:52;3.77;;;3.47;;
16177;SDS011;8195;51.220;9.746;2023-05-19T10:13:21;4.00;;;3.63;;
16177;SDS011;8195;51.220;9.746;2023-05-19T10:24:13;3.63;;;3.33;;
16177;SDS011;8195;51.220;9.746;2023-05-19T10:46:03;4.17;;;3.10;;
16177;SDS011;8195;51.220;9.746;2023-05-19T10:57:07;3.20;;;2.60;;
16177;SDS011;8195;51.220;9.746;2023-05-19T11:07:25;2.97;;;2.73;;
16177;SDS011;8195;51.220;9.746;2023-05-19T11:18:12;2.93;;;2.63;;
16177;SDS011;8195;51.220;9.746;2023-05-19T11:28:51;4.20;;;2.83;;
16177;SDS011;8195;51.220;9.746;2023-05-19T11:39:17;3.00;;;2.30;;
16177;SDS011;8195;51.220;9.746;2023-05-19T11:49:43;2.57;;;2.37;;
16177;SDS011;8195;51.220;9.746;2023-05-19T12:00:11;2.50;;;2.30;;
16177;SDS011;8195;51.220;9.746;2023-05-19T12:10:32;3.47;;;2.40;;
16177;SDS011;8195;51.220;9.746;2023-05-19T12:21:03;2.70;;;2.50;;
16177;SDS011;8195;51.220;9.746;2023-05-19T12:31:24;2.87;;;2.67;;
16177;SDS011;8195;51.220;9.746;2023-05-19T12:42:06;3.70;;;2.53;;
16177;SDS011;8195;51.220;9.746;2023-05-19T13:03:42;2.97;;;2.67;;
16177;SDS011;8195;51.220;9.746;2023-05-19T13:14:29;2.47;;;2.27;;
16177;SDS011;8195;51.220;9.746;2023-05-19T13:25:03;2.60;;;2.40;;
16177;SDS011;8195;51.220;9.746;2023-05-19T13:35:45;3.90;;;3.10;;
16177;SDS011;8195;51.220;9.746;2023-05-19T13:46:06;3.00;;;2.80;;
16177;SDS011;8195;51.220;9.746;2023-05-19T13:56:42;3.00;;;2.63;;
16177;SDS011;8195;51.220;9.746;2023-05-19T14:07:06;4.00;;;2.20;;
16177;SDS011;8195;51.220;9.746;2023-05-19T14:17:39;3.90;;;2.80;;
16177;SDS011;8195;51.220;9.746;2023-05-19T14:28:09;2.80;;;2.60;;
16177;SDS011;8195;51.220;9.746;2023-05-19T15:01:36;2.73;;;2.53;;
16177;SDS011;8195;51.220;9.746;2023-05-19T15:12:18;3.00;;;2.63;;
16177;SDS011;8195;51.220;9.746;2023-05-19T15:22:48;4.17;;;2.30;;
16177;SDS011;8195;51.220;9.746;2023-05-19T15:33:27;2.50;;;2.30;;
16177;SDS011;8195;51.220;9.746;2023-05-19T15:43:48;2.20;;;2.10;;
16177;SDS011;8195;51.220;9.746;2023-05-19T15:54:16;2.10;;;2.00;;
16177;SDS011;8195;51.220;9.746;2023-05-19T16:04:40;2.47;;;2.17;;
16177;SDS011;8195;51.220;9.746;2023-05-19T16:15:12;2.37;;;2.20;;
16177;SDS011;8195;51.220;9.746;2023-05-19T16:25:52;2.67;;;1.80;;
16177;SDS011;8195;51.220;9.746;2023-05-19T16:36:15;4.50;;;2.40;;
16177;SDS011;8195;51.220;9.746;2023-05-19T16:46:36;2.33;;;2.13;;
16177;SDS011;8195;51.220;9.746;2023-05-19T16:56:57;2.40;;;2.20;;
16177;SDS011;8195;51.220;9.746;2023-05-19T17:07:23;3.07;;;1.77;;
16177;SDS011;8195;51.220;9.746;2023-05-19T17:17:56;2.33;;;2.10;;
16177;SDS011;8195;51.220;9.746;2023-05-19T17:28:45;2.30;;;1.80;;
16177;SDS011;8195;51.220;9.746;2023-05-19T17:39:25;2.23;;;2.00;;
16177;SDS011;8195;51.220;9.746;2023-05-19T17:49:46;2.40;;;2.20;;
16177;SDS011;8195;51.220;9.746;2023-05-19T18:00:07;2.60;;;2.13;;
16177;SDS011;8195;51.220;9.746;2023-05-19T18:10:29;2.43;;;2.23;;
16177;SDS011;8195;51.220;9.746;2023-05-19T18:20:54;3.10;;;2.27;;
16177;SDS011;8195;51.220;9.746;2023-05-19T18:31:15;2.20;;;2.07;;
16177;SDS011;8195;51.220;9.746;2023-05-19T18:41:45;3.40;;;2.50;;
16177;SDS011;8195;51.220;9.746;2023-05-19T18:52:23;2.77;;;2.30;;
16177;SDS011;8195;51.220;9.746;2023-05-19T19:03:08;4.33;;;2.60;;
16177;SDS011;8195;51.220;9.746;2023-05-19T19:13:37;3.23;;;2.60;;
16177;SDS011;8195;51.220;9.746;2023-05-19T19:23:59;4.50;;;2.70;;
16177;SDS011;8195;51.220;9.746;2023-05-19T19:34:36;4.00;;;2.90;;
16177;SDS011;8195;51.220;9.746;2023-05-19T19:45:01;5.17;;;2.87;;
16177;SDS011;8195;51.220;9.746;2023-05-19T19:55:25;3.43;;;3.13;;
16177;SDS011;8195;51.220;9.746;2023-05-19T20:05:54;4.27;;;3.13;;
16177;SDS011;8195;51.220;9.746;2023-05-19T20:27:09;3.73;;;3.40;;
16177;SDS011;8195;51.220;9.746;2023-05-19T20:37:50;4.67;;;3.67;;
16177;SDS011;8195;51.220;9.746;2023-05-19T20:48:11;3.90;;;3.60;;
16177;SDS011;8195;51.220;9.746;2023-05-19T20:58:35;4.07;;;3.77;;
16177;SDS011;8195;51.220;9.746;2023-05-19T21:08:56;3.90;;;3.60;;
16177;SDS011;8195;51.220;9.746;2023-05-19T21:19:21;4.40;;;4.10;;
16177;SDS011;8195;51.220;9.746;2023-05-19T21:29:57;4.50;;;4.10;;
16177;SDS011;8195;51.220;9.746;2023-05-19T21:40:23;4.80;;;4.07;;
16177;SDS011;8195;51.220;9.746;2023-05-19T21:50:44;4.80;;;4.40;;
16177;SDS011;8195;51.220;9.746;2023-05-19T22:12:12;4.80;;;4.50;;
16177;SDS011;8195;51.220;9.746;2023-05-19T22:22:33;5.10;;;4.70;;
16177;SDS011;8195;51.220;9.746;2023-05-19T22:32:54;5.23;;;4.77;;
16177;SDS011;8195;51.220;9.746;2023-05-19T22:43:21;5.10;;;4.60;;
16177;SDS011;8195;51.220;9.746;2023-05-19T22:53:42;5.70;;;5.17;;
16177;SDS011;8195;51.220;9.746;2023-05-19T23:04:03;5.57;;;5.07;;
16177;SDS011;8195;51.220;9.746;2023-05-19T23:14:24;5.83;;;5.43;;
16177;SDS011;8195;51.220;9.746;2023-05-19T23:25:05;6.20;;;5.60;;
16177;SDS011;8195;51.220;9.746;2023-05-19T23:35:49;6.70;;;6.10;;
16177;SDS011;8195;51.220;9.746;2023-05-19T23:46:16;7.00;;;6.40;;
16177;SDS011;8195;51.220;9.746;2023-05-19T23:56:37;6.40;;;5.90;;
